sensor_id;sensor_type;location;lat;lon;timestamp;P1;durP1;ratioP1;P2;durP2;ratioP2
49043;SDS011;34860;48.066;14.124;2023-08-06T00:01:09;0.47;;;0.32;;
49043;SDS011;34860;48.066;14.124;2023-08-06T00:03:57;0.45;;;0.30;;
49043;SDS011;34860;48.066;14.124;2023-08-06T00:06:47;0.40;;;0.40;;
49043;SDS011;34860;48.066;14.124;2023-08-06T00:09:35;0.28;;;0.20;;
49043;SDS011;34860;48.066;14.124;2023-08-06T00:12:24;0.25;;;0.20;;
49043;SDS011;34860;48.066;14.124;2023-08-06T00:15:15;1.05;;;0.15;;
49043;SDS011;34860;48.066;14.124;2023-08-06T00:18:04;0.38;;;0.20;;
49043;SDS011;34860;48.066;14.124;2023-08-06T00:20:52;0.32;;;0.30;;
49043;SDS011;34860;48.066;14.124;2023-08-06T00:23:40;2.25;;;0.90;;
49043;SDS011;34860;48.066;14.124;2023-08-06T00:26:28;0.22;;;0.20;;
49043;SDS011;34860;48.066;14.124;2023-08-06T00:29:17;0.80;;;0.38;;
49043;SDS011;34860;48.066;14.124;2023-08-06T00:32:06;2.10;;;0.60;;
49043;SDS011;34860;48.066;14.124;2023-08-06T00:34:54;0.47;;;0.22;;
49043;SDS011;34860;48.066;14.124;2023-08-06T00:37:43;0.95;;;0.57;;
49043;SDS011;34860;48.066;14.124;2023-08-06T00:40:31;0.30;;;0.20;;
49043;SDS011;34860;48.066;14.124;2023-08-06T00:43:19;0.30;;;0.20;;
49043;SDS011;34860;48.066;14.124;2023-08-06T00:46:07;0.40;;;0.20;;
49043;SDS011;34860;48.066;14.124;2023-08-06T00:48:56;0.38;;;0.20;;
49043;SDS011;34860;48.066;14.124;2023-08-06T00:51:44;0.30;;;0.20;;
49043;SDS011;34860;48.066;14.124;2023-08-06T00:54:33;0.57;;;0.15;;
49043;SDS011;34860;48.066;14.124;2023-08-06T00:57:22;0.75;;;0.30;;
49043;SDS011;34860;48.066;14.124;2023-08-06T01:00:13;0.20;;;0.20;;
49043;SDS011;34860;48.066;14.124;2023-08-06T01:03:01;0.63;;;0.40;;
49043;SDS011;34860;48.066;14.124;2023-08-06T01:05:50;0.63;;;0.30;;
49043;SDS011;34860;48.066;14.124;2023-08-06T01:08:40;2.20;;;0.60;;
49043;SDS011;34860;48.066;14.124;2023-08-06T01:11:37;0.70;;;0.20;;
49043;SDS011;34860;48.066;14.124;2023-08-06T01:14:33;0.32;;;0.30;;
49043;SDS011;34860;48.066;14.124;2023-08-06T01:17:34;0.20;;;0.10;;
49043;SDS011;34860;48.066;14.124;2023-08-06T01:20:28;0.63;;;0.20;;
49043;SDS011;34860;48.066;14.124;2023-08-06T01:23:17;0.25;;;0.15;;
49043;SDS011;34860;48.066;14.124;2023-08-06T01:26:09;0.22;;;0.20;;
49043;SDS011;34860;48.066;14.124;2023-08-06T01:29:03;0.10;;;0.10;;
49043;SDS011;34860;48.066;14.124;2023-08-06T01:31:57;1.63;;;0.20;;
49043;SDS011;34860;48.066;14.124;2023-08-06T01:34:46;0.22;;;0.10;;
49043;SDS011;34860;48.066;14.124;2023-08-06T01:37:37;0.20;;;0.15;;
49043;SDS011;34860;48.066;14.124;2023-08-06T01:40:26;0.20;;;0.10;;
49043;SDS011;34860;48.066;14.124;2023-08-06T01:43:16;1.27;;;0.30;;
49043;SDS011;34860;48.066;14.124;2023-08-06T01:46:04;0.20;;;0.20;;
49043;SDS011;34860;48.066;14.124;2023-08-06T01:48:52;0.30;;;0.30;;
49043;SDS011;34860;48.066;14.124;2023-08-06T01:51:40;0.45;;;0.30;;
49043;SDS011;34860;48.066;14.124;2023-08-06T01:54:30;0.35;;;0.22;;
49043;SDS011;34860;48.066;14.124;2023-08-06T01:57:18;0.52;;;0.20;;
49043;SDS011;34860;48.066;14.124;2023-08-06T02:00:06;1.08;;;0.52;;
49043;SDS011;34860;48.066;14.124;2023-08-06T02:03:03;3.60;;;1.58;;
49043;SDS011;34860;48.066;14.124;2023-08-06T02:05:51;6.75;;;2.97;;
49043;SDS011;34860;48.066;14.124;2023-08-06T02:08:41;10.88;;;4.30;;
49043;SDS011;34860;48.066;14.124;2023-08-06T02:11:30;12.68;;;5.00;;
49043;SDS011;34860;48.066;14.124;2023-08-06T02:14:18;10.27;;;3.17;;
49043;SDS011;34860;48.066;14.124;2023-08-06T02:17:06;4.47;;;2.22;;
49043;SDS011;34860;48.066;14.124;2023-08-06T02:19:54;5.70;;;2.03;;
49043;SDS011;34860;48.066;14.124;2023-08-06T02:22:42;2.92;;;2.15;;
49043;SDS011;34860;48.066;14.124;2023-08-06T02:25:31;0.43;;;0.28;;
49043;SDS011;34860;48.066;14.124;2023-08-06T02:28:20;2.08;;;1.38;;
49043;SDS011;34860;48.066;14.124;2023-08-06T02:31:08;1.95;;;0.95;;
49043;SDS011;34860;48.066;14.124;2023-08-06T02:33:56;1.27;;;0.30;;
49043;SDS011;34860;48.066;14.124;2023-08-06T02:36:45;0.95;;;0.40;;
49043;SDS011;34860;48.066;14.124;2023-08-06T02:39:33;0.60;;;0.40;;
49043;SDS011;34860;48.066;14.124;2023-08-06T02:42:22;8.50;;;0.52;;
49043;SDS011;34860;48.066;14.124;2023-08-06T02:45:13;0.20;;;0.10;;
49043;SDS011;34860;48.066;14.124;2023-08-06T02:48:01;0.75;;;0.30;;
49043;SDS011;34860;48.066;14.124;2023-08-06T02:50:50;0.25;;;0.20;;
49043;SDS011;34860;48.066;14.124;2023-08-06T02:53:38;0.32;;;0.20;;
49043;SDS011;34860;48.066;14.124;2023-08-06T02:56:29;0.10;;;0.10;;
49043;SDS011;34860;48.066;14.124;2023-08-06T02:59:31;0.03;;;0.03;;
49043;SDS011;34860;48.066;14.124;2023-08-06T03:02:28;0.13;;;0.10;;
49043;SDS011;34860;48.066;14.124;2023-08-06T03:05:22;0.73;;;0.10;;
49043;SDS011;34860;48.066;14.124;2023-08-06T03:08:10;0.10;;;0.00;;
49043;SDS011;34860;48.066;14.124;2023-08-06T03:10:58;0.22;;;0.10;;
49043;SDS011;34860;48.066;14.124;2023-08-06T03:13:47;0.65;;;0.28;;
49043;SDS011;34860;48.066;14.124;2023-08-06T03:16:36;0.20;;;0.10;;
49043;SDS011;34860;48.066;14.124;2023-08-06T03:19:25;0.80;;;0.22;;
49043;SDS011;34860;48.066;14.124;2023-08-06T03:22:14;0.52;;;0.10;;
49043;SDS011;34860;48.066;14.124;2023-08-06T03:25:02;0.45;;;0.30;;
49043;SDS011;34860;48.066;14.124;2023-08-06T03:27:52;0.20;;;0.13;;
49043;SDS011;34860;48.066;14.124;2023-08-06T03:30:41;0.22;;;0.20;;
49043;SDS011;34860;48.066;14.124;2023-08-06T03:33:31;1.55;;;0.10;;
49043;SDS011;34860;48.066;14.124;2023-08-06T03:36:22;0.32;;;0.25;;
49043;SDS011;34860;48.066;14.124;2023-08-06T03:39:11;0.25;;;0.17;;
49043;SDS011;34860;48.066;14.124;2023-08-06T03:42:01;0.13;;;0.08;;
49043;SDS011;34860;48.066;14.124;2023-08-06T03:44:49;1.48;;;0.10;;
49043;SDS011;34860;48.066;14.124;2023-08-06T03:47:37;0.10;;;0.05;;
49043;SDS011;34860;48.066;14.124;2023-08-06T03:50:26;1.45;;;0.15;;
49043;SDS011;34860;48.066;14.124;2023-08-06T03:53:15;0.50;;;0.30;;
49043;SDS011;34860;48.066;14.124;2023-08-06T03:56:04;0.45;;;0.10;;
49043;SDS011;34860;48.066;14.124;2023-08-06T03:58:53;0.50;;;0.35;;
49043;SDS011;34860;48.066;14.124;2023-08-06T04:01:42;0.60;;;0.40;;
49043;SDS011;34860;48.066;14.124;2023-08-06T04:04:30;0.40;;;0.17;;
49043;SDS011;34860;48.066;14.124;2023-08-06T04:07:18;0.43;;;0.22;;
49043;SDS011;34860;48.066;14.124;2023-08-06T04:10:08;0.77;;;0.35;;
49043;SDS011;34860;48.066;14.124;2023-08-06T04:12:57;0.15;;;0.15;;
49043;SDS011;34860;48.066;14.124;2023-08-06T04:15:45;0.20;;;0.10;;
49043;SDS011;34860;48.066;14.124;2023-08-06T04:18:33;0.00;;;0.00;;
49043;SDS011;34860;48.066;14.124;2023-08-06T04:21:21;0.00;;;0.00;;
49043;SDS011;34860;48.066;14.124;2023-08-06T04:24:09;6.88;;;0.20;;
49043;SDS011;34860;48.066;14.124;2023-08-06T04:26:59;0.98;;;0.08;;
49043;SDS011;34860;48.066;14.124;2023-08-06T04:29:47;0.10;;;0.05;;
49043;SDS011;34860;48.066;14.124;2023-08-06T04:32:36;0.10;;;0.10;;
49043;SDS011;34860;48.066;14.124;2023-08-06T04:35:24;0.10;;;0.05;;
49043;SDS011;34860;48.066;14.124;2023-08-06T04:38:12;0.15;;;0.10;;
49043;SDS011;34860;48.066;14.124;2023-08-06T04:41:01;0.65;;;0.30;;
49043;SDS011;34860;48.066;14.124;2023-08-06T04:43:51;0.00;;;0.00;;
49043;SDS011;34860;48.066;14.124;2023-08-06T04:46:39;0.05;;;0.00;;
49043;SDS011;34860;48.066;14.124;2023-08-06T04:49:27;0.38;;;0.20;;
49043;SDS011;34860;48.066;14.124;2023-08-06T04:52:15;2.30;;;0.25;;
49043;SDS011;34860;48.066;14.124;2023-08-06T04:55:03;0.10;;;0.10;;
49043;SDS011;34860;48.066;14.124;2023-08-06T04:57:52;1.75;;;0.10;;
49043;SDS011;34860;48.066;14.124;2023-08-06T05:00:42;0.30;;;0.15;;
49043;SDS011;34860;48.066;14.124;2023-08-06T05:03:30;0.20;;;0.17;;
49043;SDS011;34860;48.066;14.124;2023-08-06T05:06:18;0.50;;;0.15;;
49043;SDS011;34860;48.066;14.124;2023-08-06T05:09:06;1.13;;;0.52;;
49043;SDS011;34860;48.066;14.124;2023-08-06T05:11:54;0.00;;;0.00;;
49043;SDS011;34860;48.066;14.124;2023-08-06T05:14:42;0.47;;;0.28;;
49043;SDS011;34860;48.066;14.124;2023-08-06T05:17:31;0.17;;;0.10;;
49043;SDS011;34860;48.066;14.124;2023-08-06T05:20:20;0.00;;;0.00;;
49043;SDS011;34860;48.066;14.124;2023-08-06T05:23:08;0.15;;;0.10;;
49043;SDS011;34860;48.066;14.124;2023-08-06T05:25:56;0.75;;;0.17;;
49043;SDS011;34860;48.066;14.124;2023-08-06T05:28:44;1.75;;;0.40;;
49043;SDS011;34860;48.066;14.124;2023-08-06T05:31:33;0.05;;;0.00;;
49043;SDS011;34860;48.066;14.124;2023-08-06T05:34:22;0.17;;;0.08;;
49043;SDS011;34860;48.066;14.124;2023-08-06T05:37:10;2.63;;;0.32;;
49043;SDS011;34860;48.066;14.124;2023-08-06T05:39:58;0.57;;;0.20;;
49043;SDS011;34860;48.066;14.124;2023-08-06T05:42:46;0.20;;;0.10;;
49043;SDS011;34860;48.066;14.124;2023-08-06T05:45:34;0.17;;;0.13;;
49043;SDS011;34860;48.066;14.124;2023-08-06T05:48:22;0.38;;;0.38;;
49043;SDS011;34860;48.066;14.124;2023-08-06T05:51:12;1.15;;;0.45;;
49043;SDS011;34860;48.066;14.124;2023-08-06T05:54:02;0.17;;;0.15;;
49043;SDS011;34860;48.066;14.124;2023-08-06T05:56:50;0.47;;;0.20;;
49043;SDS011;34860;48.066;14.124;2023-08-06T05:59:39;0.13;;;0.05;;
49043;SDS011;34860;48.066;14.124;2023-08-06T06:02:28;0.30;;;0.30;;
49043;SDS011;34860;48.066;14.124;2023-08-06T06:05:16;0.10;;;0.10;;
49043;SDS011;34860;48.066;14.124;2023-08-06T06:08:05;0.95;;;0.38;;
49043;SDS011;34860;48.066;14.124;2023-08-06T06:10:53;0.47;;;0.30;;
49043;SDS011;34860;48.066;14.124;2023-08-06T06:13:41;0.50;;;0.20;;
49043;SDS011;34860;48.066;14.124;2023-08-06T06:16:29;0.22;;;0.10;;
49043;SDS011;34860;48.066;14.124;2023-08-06T06:19:17;0.40;;;0.10;;
49043;SDS011;34860;48.066;14.124;2023-08-06T06:22:05;1.95;;;0.20;;
49043;SDS011;34860;48.066;14.124;2023-08-06T06:24:54;0.20;;;0.10;;
49043;SDS011;34860;48.066;14.124;2023-08-06T06:27:42;1.35;;;0.45;;
49043;SDS011;34860;48.066;14.124;2023-08-06T06:30:30;0.50;;;0.28;;
49043;SDS011;34860;48.066;14.124;2023-08-06T06:33:18;2.53;;;0.40;;
49043;SDS011;34860;48.066;14.124;2023-08-06T06:36:07;1.52;;;0.50;;
49043;SDS011;34860;48.066;14.124;2023-08-06T06:38:56;0.40;;;0.25;;
49043;SDS011;34860;48.066;14.124;2023-08-06T06:41:48;0.80;;;0.40;;
49043;SDS011;34860;48.066;14.124;2023-08-06T06:44:43;1.15;;;0.40;;
49043;SDS011;34860;48.066;14.124;2023-08-06T06:47:31;0.52;;;0.28;;
49043;SDS011;34860;48.066;14.124;2023-08-06T06:50:19;0.20;;;0.15;;
49043;SDS011;34860;48.066;14.124;2023-08-06T06:53:07;0.40;;;0.17;;
49043;SDS011;34860;48.066;14.124;2023-08-06T06:55:55;0.30;;;0.30;;
49043;SDS011;34860;48.066;14.124;2023-08-06T06:58:45;0.38;;;0.05;;
49043;SDS011;34860;48.066;14.124;2023-08-06T07:01:33;2.65;;;0.35;;
49043;SDS011;34860;48.066;14.124;2023-08-06T07:04:21;0.30;;;0.20;;
49043;SDS011;34860;48.066;14.124;2023-08-06T07:07:09;1.35;;;0.13;;
49043;SDS011;34860;48.066;14.124;2023-08-06T07:09:57;0.55;;;0.50;;
49043;SDS011;34860;48.066;14.124;2023-08-06T07:12:45;5.47;;;0.52;;
49043;SDS011;34860;48.066;14.124;2023-08-06T07:15:35;0.00;;;0.00;;
49043;SDS011;34860;48.066;14.124;2023-08-06T07:18:25;0.17;;;0.05;;
49043;SDS011;34860;48.066;14.124;2023-08-06T07:21:13;0.25;;;0.25;;
49043;SDS011;34860;48.066;14.124;2023-08-06T07:24:01;0.43;;;0.30;;
49043;SDS011;34860;48.066;14.124;2023-08-06T07:26:50;1.45;;;0.20;;
49043;SDS011;34860;48.066;14.124;2023-08-06T07:29:39;0.17;;;0.08;;
49043;SDS011;34860;48.066;14.124;2023-08-06T07:32:28;0.20;;;0.20;;
49043;SDS011;34860;48.066;14.124;2023-08-06T07:35:16;0.00;;;0.00;;
49043;SDS011;34860;48.066;14.124;2023-08-06T07:38:04;0.45;;;0.17;;
49043;SDS011;34860;48.066;14.124;2023-08-06T07:40:52;1.45;;;0.20;;
49043;SDS011;34860;48.066;14.124;2023-08-06T07:43:40;2.08;;;0.65;;
49043;SDS011;34860;48.066;14.124;2023-08-06T07:46:29;0.73;;;0.20;;
49043;SDS011;34860;48.066;14.124;2023-08-06T07:49:18;3.45;;;0.30;;
49043;SDS011;34860;48.066;14.124;2023-08-06T07:52:06;0.10;;;0.10;;
49043;SDS011;34860;48.066;14.124;2023-08-06T07:54:54;1.05;;;0.10;;
49043;SDS011;34860;48.066;14.124;2023-08-06T07:57:42;0.43;;;0.13;;
49043;SDS011;34860;48.066;14.124;2023-08-06T08:00:30;2.38;;;0.13;;
49043;SDS011;34860;48.066;14.124;2023-08-06T08:03:19;0.50;;;0.30;;
49043;SDS011;34860;48.066;14.124;2023-08-06T08:06:09;0.30;;;0.10;;
49043;SDS011;34860;48.066;14.124;2023-08-06T08:08:57;0.45;;;0.05;;
49043;SDS011;34860;48.066;14.124;2023-08-06T08:11:45;0.88;;;0.20;;
49043;SDS011;34860;48.066;14.124;2023-08-06T08:14:33;1.17;;;0.10;;
49043;SDS011;34860;48.066;14.124;2023-08-06T08:17:23;0.10;;;0.00;;
49043;SDS011;34860;48.066;14.124;2023-08-06T08:20:11;0.10;;;0.10;;
49043;SDS011;34860;48.066;14.124;2023-08-06T08:23:01;4.93;;;0.03;;
49043;SDS011;34860;48.066;14.124;2023-08-06T08:25:51;0.50;;;0.20;;
49043;SDS011;34860;48.066;14.124;2023-08-06T08:28:39;0.00;;;0.00;;
49043;SDS011;34860;48.066;14.124;2023-08-06T08:31:26;0.30;;;0.00;;
49043;SDS011;34860;48.066;14.124;2023-08-06T08:34:15;0.35;;;0.30;;
49043;SDS011;34860;48.066;14.124;2023-08-06T08:37:03;0.20;;;0.10;;
49043;SDS011;34860;48.066;14.124;2023-08-06T08:39:54;0.03;;;0.00;;
49043;SDS011;34860;48.066;14.124;2023-08-06T08:42:42;0.65;;;0.10;;
49043;SDS011;34860;48.066;14.124;2023-08-06T08:45:30;0.43;;;0.25;;
49043;SDS011;34860;48.066;14.124;2023-08-06T08:48:22;1.48;;;0.10;;
49043;SDS011;34860;48.066;14.124;2023-08-06T08:51:11;0.52;;;0.22;;
49043;SDS011;34860;48.066;14.124;2023-08-06T08:54:01;0.22;;;0.10;;
49043;SDS011;34860;48.066;14.124;2023-08-06T08:56:52;0.90;;;0.20;;
49043;SDS011;34860;48.066;14.124;2023-08-06T08:59:41;0.30;;;0.17;;
49043;SDS011;34860;48.066;14.124;2023-08-06T09:02:29;0.35;;;0.20;;
49043;SDS011;34860;48.066;14.124;2023-08-06T09:05:20;0.10;;;0.10;;
49043;SDS011;34860;48.066;14.124;2023-08-06T09:08:11;0.00;;;0.00;;
49043;SDS011;34860;48.066;14.124;2023-08-06T09:11:02;0.00;;;0.00;;
49043;SDS011;34860;48.066;14.124;2023-08-06T09:13:54;0.15;;;0.00;;
49043;SDS011;34860;48.066;14.124;2023-08-06T09:16:43;0.43;;;0.13;;
49043;SDS011;34860;48.066;14.124;2023-08-06T09:19:31;2.28;;;0.20;;
49043;SDS011;34860;48.066;14.124;2023-08-06T09:22:19;0.32;;;0.10;;
49043;SDS011;34860;48.066;14.124;2023-08-06T09:25:07;0.10;;;0.10;;
49043;SDS011;34860;48.066;14.124;2023-08-06T09:27:57;1.35;;;0.50;;
49043;SDS011;34860;48.066;14.124;2023-08-06T09:30:47;0.50;;;0.35;;
49043;SDS011;34860;48.066;14.124;2023-08-06T09:33:36;0.43;;;0.10;;
49043;SDS011;34860;48.066;14.124;2023-08-06T09:36:24;0.10;;;0.05;;
49043;SDS011;34860;48.066;14.124;2023-08-06T09:39:13;0.10;;;0.10;;
49043;SDS011;34860;48.066;14.124;2023-08-06T09:42:02;2.97;;;0.45;;
49043;SDS011;34860;48.066;14.124;2023-08-06T09:44:50;0.30;;;0.10;;
49043;SDS011;34860;48.066;14.124;2023-08-06T09:47:40;0.08;;;0.00;;
49043;SDS011;34860;48.066;14.124;2023-08-06T09:50:29;0.15;;;0.00;;
49043;SDS011;34860;48.066;14.124;2023-08-06T09:53:18;0.20;;;0.00;;
49043;SDS011;34860;48.066;14.124;2023-08-06T09:56:07;0.28;;;0.20;;
49043;SDS011;34860;48.066;14.124;2023-08-06T09:58:57;4.38;;;0.30;;
49043;SDS011;34860;48.066;14.124;2023-08-06T10:01:46;0.10;;;0.05;;
49043;SDS011;34860;48.066;14.124;2023-08-06T10:04:36;1.60;;;0.15;;
49043;SDS011;34860;48.066;14.124;2023-08-06T10:07:26;0.20;;;0.10;;
49043;SDS011;34860;48.066;14.124;2023-08-06T10:10:17;1.17;;;0.10;;
49043;SDS011;34860;48.066;14.124;2023-08-06T10:13:06;1.38;;;0.20;;
49043;SDS011;34860;48.066;14.124;2023-08-06T10:15:56;1.40;;;0.30;;
49043;SDS011;34860;48.066;14.124;2023-08-06T10:18:45;0.10;;;0.10;;
49043;SDS011;34860;48.066;14.124;2023-08-06T10:21:36;0.22;;;0.15;;
49043;SDS011;34860;48.066;14.124;2023-08-06T10:24:25;0.20;;;0.10;;
49043;SDS011;34860;48.066;14.124;2023-08-06T10:27:13;0.10;;;0.00;;
49043;SDS011;34860;48.066;14.124;2023-08-06T10:30:21;0.03;;;0.00;;
49043;SDS011;34860;48.066;14.124;2023-08-06T10:33:10;0.10;;;0.00;;
49043;SDS011;34860;48.066;14.124;2023-08-06T10:36:00;0.00;;;0.00;;
49043;SDS011;34860;48.066;14.124;2023-08-06T10:41:45;0.00;;;0.00;;
49043;SDS011;34860;48.066;14.124;2023-08-06T10:44:33;0.00;;;0.00;;
49043;SDS011;34860;48.066;14.124;2023-08-06T10:47:28;0.17;;;0.10;;
49043;SDS011;34860;48.066;14.124;2023-08-06T10:50:16;0.00;;;0.00;;
49043;SDS011;34860;48.066;14.124;2023-08-06T10:53:04;0.05;;;0.00;;
49043;SDS011;34860;48.066;14.124;2023-08-06T10:55:54;0.00;;;0.00;;
49043;SDS011;34860;48.066;14.124;2023-08-06T10:58:43;0.10;;;0.08;;
49043;SDS011;34860;48.066;14.124;2023-08-06T11:01:31;0.43;;;0.20;;
49043;SDS011;34860;48.066;14.124;2023-08-06T11:04:21;1.23;;;0.08;;
49043;SDS011;34860;48.066;14.124;2023-08-06T11:07:09;4.07;;;0.10;;
49043;SDS011;34860;48.066;14.124;2023-08-06T11:10:00;0.00;;;0.00;;
49043;SDS011;34860;48.066;14.124;2023-08-06T11:12:51;0.10;;;0.00;;
49043;SDS011;34860;48.066;14.124;2023-08-06T11:15:39;0.00;;;0.00;;
49043;SDS011;34860;48.066;14.124;2023-08-06T11:18:27;0.00;;;0.00;;
49043;SDS011;34860;48.066;14.124;2023-08-06T11:21:18;0.00;;;0.00;;
49043;SDS011;34860;48.066;14.124;2023-08-06T11:24:06;0.00;;;0.00;;
49043;SDS011;34860;48.066;14.124;2023-08-06T11:26:54;0.00;;;0.00;;
49043;SDS011;34860;48.066;14.124;2023-08-06T11:29:44;0.00;;;0.00;;
49043;SDS011;34860;48.066;14.124;2023-08-06T11:32:32;0.10;;;0.03;;
49043;SDS011;34860;48.066;14.124;2023-08-06T11:35:21;0.00;;;0.00;;
49043;SDS011;34860;48.066;14.124;2023-08-06T11:38:09;1.33;;;0.05;;
49043;SDS011;34860;48.066;14.124;2023-08-06T11:40:57;0.00;;;0.00;;
49043;SDS011;34860;48.066;14.124;2023-08-06T11:43:45;0.32;;;0.00;;
49043;SDS011;34860;48.066;14.124;2023-08-06T11:49:43;0.00;;;0.00;;
49043;SDS011;34860;48.066;14.124;2023-08-06T11:52:33;0.00;;;0.00;;
49043;SDS011;34860;48.066;14.124;2023-08-06T11:55:22;0.82;;;0.00;;
49043;SDS011;34860;48.066;14.124;2023-08-06T11:58:11;0.35;;;0.10;;
49043;SDS011;34860;48.066;14.124;2023-08-06T12:00:59;0.00;;;0.00;;
49043;SDS011;34860;48.066;14.124;2023-08-06T12:03:49;0.00;;;0.00;;
49043;SDS011;34860;48.066;14.124;2023-08-06T12:06:41;0.00;;;0.00;;
49043;SDS011;34860;48.066;14.124;2023-08-06T12:09:30;0.00;;;0.00;;
49043;SDS011;34860;48.066;14.124;2023-08-06T12:12:18;0.00;;;0.00;;
49043;SDS011;34860;48.066;14.124;2023-08-06T12:15:07;0.00;;;0.00;;
49043;SDS011;34860;48.066;14.124;2023-08-06T12:18:00;0.00;;;0.00;;
49043;SDS011;34860;48.066;14.124;2023-08-06T12:20:49;0.75;;;0.00;;
49043;SDS011;34860;48.066;14.124;2023-08-06T12:23:37;0.00;;;0.00;;
49043;SDS011;34860;48.066;14.124;2023-08-06T12:26:25;0.05;;;0.00;;
49043;SDS011;34860;48.066;14.124;2023-08-06T12:29:13;0.00;;;0.00;;
49043;SDS011;34860;48.066;14.124;2023-08-06T12:32:01;0.00;;;0.00;;
49043;SDS011;34860;48.066;14.124;2023-08-06T12:34:52;0.00;;;0.00;;
49043;SDS011;34860;48.066;14.124;2023-08-06T12:37:41;0.00;;;0.00;;
49043;SDS011;34860;48.066;14.124;2023-08-06T12:40:30;5.18;;;0.10;;
49043;SDS011;34860;48.066;14.124;2023-08-06T12:43:22;0.00;;;0.00;;
49043;SDS011;34860;48.066;14.124;2023-08-06T12:46:10;0.05;;;0.00;;
49043;SDS011;34860;48.066;14.124;2023-08-06T12:48:58;0.00;;;0.00;;
49043;SDS011;34860;48.066;14.124;2023-08-06T12:51:46;0.10;;;0.05;;
49043;SDS011;34860;48.066;14.124;2023-08-06T12:54:36;0.00;;;0.00;;
49043;SDS011;34860;48.066;14.124;2023-08-06T12:57:24;0.98;;;0.00;;
49043;SDS011;34860;48.066;14.124;2023-08-06T13:00:18;0.00;;;0.00;;
49043;SDS011;34860;48.066;14.124;2023-08-06T13:03:06;0.00;;;0.00;;
49043;SDS011;34860;48.066;14.124;2023-08-06T13:05:54;0.00;;;0.00;;
49043;SDS011;34860;48.066;14.124;2023-08-06T13:08:44;0.00;;;0.00;;
49043;SDS011;34860;48.066;14.124;2023-08-06T13:11:33;0.00;;;0.00;;
49043;SDS011;34860;48.066;14.124;2023-08-06T13:14:22;0.00;;;0.00;;
49043;SDS011;34860;48.066;14.124;2023-08-06T13:17:10;0.00;;;0.00;;
49043;SDS011;34860;48.066;14.124;2023-08-06T13:19:58;0.00;;;0.00;;
49043;SDS011;34860;48.066;14.124;2023-08-06T13:22:46;0.00;;;0.00;;
49043;SDS011;34860;48.066;14.124;2023-08-06T13:25:36;0.00;;;0.00;;
49043;SDS011;34860;48.066;14.124;2023-08-06T13:28:26;0.00;;;0.00;;
49043;SDS011;34860;48.066;14.124;2023-08-06T13:31:14;0.00;;;0.00;;
49043;SDS011;34860;48.066;14.124;2023-08-06T13:34:02;0.00;;;0.00;;
49043;SDS011;34860;48.066;14.124;2023-08-06T13:36:51;0.00;;;0.00;;
49043;SDS011;34860;48.066;14.124;2023-08-06T13:39:39;0.00;;;0.00;;
49043;SDS011;34860;48.066;14.124;2023-08-06T13:42:27;0.00;;;0.00;;
49043;SDS011;34860;48.066;14.124;2023-08-06T13:45:16;0.00;;;0.00;;
49043;SDS011;34860;48.066;14.124;2023-08-06T13:48:04;0.00;;;0.00;;
49043;SDS011;34860;48.066;14.124;2023-08-06T13:50:53;0.00;;;0.00;;
49043;SDS011;34860;48.066;14.124;2023-08-06T13:53:41;0.00;;;0.00;;
49043;SDS011;34860;48.066;14.124;2023-08-06T13:56:28;0.00;;;0.00;;
49043;SDS011;34860;48.066;14.124;2023-08-06T13:59:18;0.00;;;0.00;;
49043;SDS011;34860;48.066;14.124;2023-08-06T14:02:08;0.00;;;0.00;;
49043;SDS011;34860;48.066;14.124;2023-08-06T14:04:56;0.00;;;0.00;;
49043;SDS011;34860;48.066;14.124;2023-08-06T14:07:44;0.00;;;0.00;;
49043;SDS011;34860;48.066;14.124;2023-08-06T14:10:32;0.10;;;0.00;;
49043;SDS011;34860;48.066;14.124;2023-08-06T14:13:20;0.00;;;0.00;;
49043;SDS011;34860;48.066;14.124;2023-08-06T14:16:09;0.00;;;0.00;;
49043;SDS011;34860;48.066;14.124;2023-08-06T14:18:59;0.00;;;0.00;;
49043;SDS011;34860;48.066;14.124;2023-08-06T14:21:47;0.00;;;0.00;;
49043;SDS011;34860;48.066;14.124;2023-08-06T14:24:35;0.00;;;0.00;;
49043;SDS011;34860;48.066;14.124;2023-08-06T14:27:24;0.00;;;0.00;;
49043;SDS011;34860;48.066;14.124;2023-08-06T14:30:12;0.00;;;0.00;;
49043;SDS011;34860;48.066;14.124;2023-08-06T14:33:00;0.00;;;0.00;;
49043;SDS011;34860;48.066;14.124;2023-08-06T14:35:59;0.00;;;0.00;;
49043;SDS011;34860;48.066;14.124;2023-08-06T14:38:48;0.00;;;0.00;;
49043;SDS011;34860;48.066;14.124;2023-08-06T14:41:43;0.00;;;0.00;;
49043;SDS011;34860;48.066;14.124;2023-08-06T14:44:31;0.00;;;0.00;;
49043;SDS011;34860;48.066;14.124;2023-08-06T14:47:20;0.00;;;0.00;;
49043;SDS011;34860;48.066;14.124;2023-08-06T14:50:08;0.00;;;0.00;;
49043;SDS011;34860;48.066;14.124;2023-08-06T14:52:58;0.00;;;0.00;;
49043;SDS011;34860;48.066;14.124;2023-08-06T14:55:50;0.45;;;0.00;;
49043;SDS011;34860;48.066;14.124;2023-08-06T14:58:38;0.00;;;0.00;;
49043;SDS011;34860;48.066;14.124;2023-08-06T15:01:26;0.10;;;0.10;;
49043;SDS011;34860;48.066;14.124;2023-08-06T15:04:14;0.05;;;0.00;;
49043;SDS011;34860;48.066;14.124;2023-08-06T15:07:02;0.20;;;0.10;;
49043;SDS011;34860;48.066;14.124;2023-08-06T15:09:52;0.00;;;0.00;;
49043;SDS011;34860;48.066;14.124;2023-08-06T15:12:53;0.00;;;0.00;;
49043;SDS011;34860;48.066;14.124;2023-08-06T15:15:41;0.00;;;0.00;;
49043;SDS011;34860;48.066;14.124;2023-08-06T15:18:31;0.00;;;0.00;;
49043;SDS011;34860;48.066;14.124;2023-08-06T15:21:19;0.00;;;0.00;;
49043;SDS011;34860;48.066;14.124;2023-08-06T15:24:07;0.00;;;0.00;;
49043;SDS011;34860;48.066;14.124;2023-08-06T15:26:56;0.00;;;0.00;;
49043;SDS011;34860;48.066;14.124;2023-08-06T15:29:44;0.00;;;0.00;;
49043;SDS011;34860;48.066;14.124;2023-08-06T15:32:32;0.00;;;0.00;;
49043;SDS011;34860;48.066;14.124;2023-08-06T15:35:20;0.00;;;0.00;;
49043;SDS011;34860;48.066;14.124;2023-08-06T15:38:08;0.00;;;0.00;;
49043;SDS011;34860;48.066;14.124;2023-08-06T15:40:56;0.00;;;0.00;;
49043;SDS011;34860;48.066;14.124;2023-08-06T15:43:46;0.00;;;0.00;;
49043;SDS011;34860;48.066;14.124;2023-08-06T15:46:34;0.13;;;0.10;;
49043;SDS011;34860;48.066;14.124;2023-08-06T15:49:22;0.00;;;0.00;;
49043;SDS011;34860;48.066;14.124;2023-08-06T15:52:10;0.00;;;0.00;;
49043;SDS011;34860;48.066;14.124;2023-08-06T15:54:58;0.00;;;0.00;;
49043;SDS011;34860;48.066;14.124;2023-08-06T15:57:51;0.00;;;0.00;;
49043;SDS011;34860;48.066;14.124;2023-08-06T16:00:40;0.00;;;0.00;;
49043;SDS011;34860;48.066;14.124;2023-08-06T16:03:28;0.00;;;0.00;;
49043;SDS011;34860;48.066;14.124;2023-08-06T16:06:16;0.00;;;0.00;;
49043;SDS011;34860;48.066;14.124;2023-08-06T16:09:04;0.00;;;0.00;;
49043;SDS011;34860;48.066;14.124;2023-08-06T16:11:54;0.00;;;0.00;;
49043;SDS011;34860;48.066;14.124;2023-08-06T16:14:42;0.00;;;0.00;;
49043;SDS011;34860;48.066;14.124;2023-08-06T16:17:31;0.00;;;0.00;;
49043;SDS011;34860;48.066;14.124;2023-08-06T16:20:19;0.00;;;0.00;;
49043;SDS011;34860;48.066;14.124;2023-08-06T16:23:07;0.00;;;0.00;;
49043;SDS011;34860;48.066;14.124;2023-08-06T16:25:55;0.00;;;0.00;;
49043;SDS011;34860;48.066;14.124;2023-08-06T16:28:44;0.00;;;0.00;;
49043;SDS011;34860;48.066;14.124;2023-08-06T16:31:31;1.05;;;0.00;;
49043;SDS011;34860;48.066;14.124;2023-08-06T16:34:21;0.00;;;0.00;;
49043;SDS011;34860;48.066;14.124;2023-08-06T16:37:10;0.00;;;0.00;;
49043;SDS011;34860;48.066;14.124;2023-08-06T16:39:58;0.00;;;0.00;;
49043;SDS011;34860;48.066;14.124;2023-08-06T16:42:46;0.00;;;0.00;;
49043;SDS011;34860;48.066;14.124;2023-08-06T16:45:35;0.20;;;0.00;;
49043;SDS011;34860;48.066;14.124;2023-08-06T16:48:24;0.00;;;0.00;;